73  °F
Temperature
23  °C
Temperature
19  °C
 Dewpoint
66  °F
  Dewpoint
78  %
 Humidity
  Temperature
8  mph
Wind Speed
7  kts
Wind Speed
13  km/h
Wind Speed
3.6  m/s
Wind Speed
210°
South South
West

Wind Speed
Clear
Conditions
Pressure 30.09 (inHG) - 1018.92 (mb)
Visibility 10.0 (mi) - 16.1 (km)

Sky Conditions
KPCW
Location Erie-Ottawa International 5 mi (8.05 km)
Metar :KPCW 220615Z AUTO 21007KT 10SM CLR 23/19 A3009 RMK AO2
Sun 22nd September 02:15 am

Nearest Airport
https://www.checkwx.com/weather/KPCW
  Metar Aviation API Data Provided by https://www.checkwx.com/ Original CSS/SVG/PHP scripts by weather34.com © 2015-2019